Time;durP1;ratioP1;P1;durP2;ratioP2;P2;SDS_P1;SDS_P2;PMS_P1;PMS_P2;Temp;Humidity;BMP_temperature;BMP_pressure;BME280_temperature;BME280_humidity;BME280_pressure;Samples;Min_cycle;Max_cycle;Signal;HPM_P1;HPM_P2
2023/07/15 00:02:11;;;;;;;3.52;2.00;;;;;;;20.08;57.07;100253.58;1723843;83;21069;-64
2023/07/15 00:04:42;;;;;;;4.70;2.10;;;;;;;20.06;57.07;100254.95;1723699;83;21122;-64
2023/07/15 00:07:11;;;;;;;4.87;1.90;;;;;;;20.05;57.16;100250.48;1723760;83;21030;-63
2023/07/15 00:09:42;;;;;;;5.33;2.15;;;;;;;20.04;57.40;100251.04;1723998;83;21023;-63
2023/07/15 00:12:11;;;;;;;4.47;2.12;;;;;;;20.03;57.43;100254.08;1723997;81;21096;-63
2023/07/15 00:14:40;;;;;;;5.47;1.82;;;;;;;20.01;57.44;100257.13;1742245;82;21591;-69
2023/07/15 00:17:11;;;;;;;3.62;1.90;;;;;;;20.00;57.52;100257.39;1755671;82;21035;-62
2023/07/15 00:19:40;;;;;;;2.83;2.00;;;;;;;19.98;57.54;100265.16;1755505;82;21114;-63
2023/07/15 00:22:10;;;;;;;4.20;1.80;;;;;;;19.95;57.51;100265.14;1756056;82;21023;-65
2023/07/15 00:24:39;;;;;;;2.50;2.00;;;;;;;19.93;57.65;100260.39;1755822;82;21082;-63
2023/07/15 00:27:08;;;;;;;2.60;2.25;;;;;;;19.92;57.76;100259.55;1756187;82;21056;-63
2023/07/15 00:29:38;;;;;;;5.17;2.02;;;;;;;19.90;57.65;100268.70;1728763;82;21098;-63
2023/07/15 00:32:12;;;;;;;4.45;1.80;;;;;;;19.89;57.80;100268.41;1756030;82;20979;-63
2023/07/15 00:34:41;;;;;;;4.83;2.10;;;;;;;19.88;57.84;100265.90;1755634;82;21502;-62
2023/07/15 00:37:10;;;;;;;4.15;1.87;;;;;;;19.86;57.92;100265.32;1756026;82;21015;-63
2023/07/15 00:39:40;;;;;;;4.25;1.98;;;;;;;19.84;58.16;100266.13;1755729;82;21094;-63
2023/07/15 00:42:18;;;;;;;4.22;1.87;;;;;;;19.81;58.14;100268.89;1755657;82;21051;-63
2023/07/15 00:44:47;;;;;;;2.72;1.85;;;;;;;19.80;58.17;100267.21;1755691;82;21023;-65
2023/07/15 00:47:31;;;;;;;3.83;2.20;;;;;;;19.79;58.21;100271.64;1755901;82;21054;-64
2023/07/15 00:49:59;;;;;;;4.17;2.20;;;;;;;19.78;58.17;100267.18;1755966;82;21046;-63
2023/07/15 00:52:32;;;;;;;3.65;2.05;;;;;;;19.77;58.21;100271.06;1755952;82;21019;-63
2023/07/15 00:55:04;;;;;;;5.78;2.40;;;;;;;19.74;58.32;100269.64;1755909;82;21102;-63
2023/07/15 00:57:38;;;;;;;;;;;;;;;19.73;58.25;100267.97;1758545;82;21078;-63
2023/07/15 01:00:10;;;;;;;3.27;2.17;;;;;;;19.69;58.46;100268.20;1755989;82;20174;-63
2023/07/15 01:02:39;;;;;;;5.08;2.30;;;;;;;19.66;58.52;100267.33;1755661;82;21031;-64
2023/07/15 01:05:10;;;;;;;4.35;2.25;;;;;;;19.66;58.48;100272.05;1755872;82;21439;-63
2023/07/15 01:07:39;;;;;;;3.35;2.10;;;;;;;19.62;58.46;100270.34;1755941;82;21085;-62
2023/07/15 01:10:09;;;;;;;4.80;2.12;;;;;;;19.61;58.64;100271.44;1756014;82;21039;-64
2023/07/15 01:12:39;;;;;;;4.22;2.22;;;;;;;19.60;58.81;100279.49;1755696;82;21039;-70
2023/07/15 01:15:10;;;;;;;4.87;2.05;;;;;;;19.59;58.95;100280.59;1755695;82;21058;-63
2023/07/15 01:17:40;;;;;;;4.83;2.30;;;;;;;19.58;59.03;100284.47;1728548;82;21074;-63
2023/07/15 01:20:11;;;;;;;6.37;2.33;;;;;;;19.58;59.17;100288.64;1755665;82;21082;-63
2023/07/15 01:22:40;;;;;;;2.70;2.12;;;;;;;19.56;59.20;100291.68;1755826;82;21090;-63
2023/07/15 01:25:10;;;;;;;3.15;2.02;;;;;;;19.54;59.24;100289.71;1755876;82;21007;-62
2023/07/15 01:27:40;;;;;;;3.85;2.00;;;;;;;19.52;59.18;100298.86;1755880;82;21467;-64
2023/07/15 01:30:11;;;;;;;6.37;2.20;;;;;;;19.49;59.26;100298.47;1755667;82;21042;-63
2023/07/15 01:32:40;;;;;;;3.67;2.10;;;;;;;19.46;59.16;100294.27;1755767;82;21463;-64
2023/07/15 01:35:10;;;;;;;3.22;2.05;;;;;;;19.42;59.24;100297.28;1734751;83;21091;-62
2023/07/15 01:37:39;;;;;;;2.72;2.10;;;;;;;19.40;59.47;100303.64;1734498;82;21099;-64
2023/07/15 01:40:10;;;;;;;3.47;2.02;;;;;;;19.38;59.54;100303.61;1734571;82;21004;-63
2023/07/15 01:42:41;;;;;;;2.95;2.02;;;;;;;19.37;59.64;100306.09;1734618;82;21079;-66
2023/07/15 01:45:10;;;;;;;6.30;2.10;;;;;;;19.32;59.70;100296.59;1734483;82;21016;-62
2023/07/15 01:47:41;;;;;;;4.75;2.22;;;;;;;19.30;59.72;100302.96;1734514;83;21111;-63
2023/07/15 01:50:12;;;;;;;4.25;2.20;;;;;;;19.27;59.82;100301.25;1734421;83;21032;-63
2023/07/15 01:52:42;;;;;;;5.35;2.27;;;;;;;19.26;59.98;100297.63;1734848;82;21044;-67
2023/07/15 01:55:12;;;;;;;3.42;2.20;;;;;;;19.25;60.13;100308.45;1734687;82;21071;-63
2023/07/15 01:57:42;;;;;;;3.47;2.17;;;;;;;19.21;60.18;100308.67;1734797;82;21036;-63
2023/07/15 02:00:16;;;;;;;4.80;1.87;;;;;;;19.19;60.28;100315.58;1734789;83;21032;-63
2023/07/15 02:02:44;;;;;;;3.15;2.20;;;;;;;19.16;60.39;100315.55;1664888;85;21538;-63
2023/07/15 02:05:15;;;;;;;4.87;2.33;;;;;;;19.14;60.59;100315.52;1691755;85;21043;-65
2023/07/15 02:07:45;;;;;;;4.53;1.98;;;;;;;19.12;60.64;100319.94;1664606;85;21756;-64
2023/07/15 02:10:15;;;;;;;4.00;2.08;;;;;;;19.11;60.88;100323.81;1734777;83;21044;-64
2023/07/15 02:12:44;;;;;;;3.95;2.10;;;;;;;19.09;60.87;100320.45;1734552;83;21175;-62
2023/07/15 02:15:13;;;;;;;3.70;2.15;;;;;;;19.08;60.99;100324.32;1734430;83;21087;-62
2023/07/15 02:17:43;;;;;;;4.17;2.45;;;;;;;19.06;61.06;100323.73;1710111;83;21133;-63
2023/07/15 02:20:12;;;;;;;3.55;1.95;;;;;;;19.07;61.12;100330.12;1710276;83;21069;-63
2023/07/15 02:22:43;;;;;;;3.02;2.10;;;;;;;19.05;61.59;100333.16;1734763;82;21028;-63
2023/07/15 02:25:12;;;;;;;3.45;2.15;;;;;;;19.02;61.52;100331.44;1709950;83;21471;-64
2023/07/15 02:27:42;;;;;;;3.95;1.87;;;;;;;18.98;62.08;100322.78;1734671;83;21008;-63
2023/07/15 02:30:12;;;;;;;2.42;1.90;;;;;;;18.95;62.28;100321.90;1734769;82;21040;-66
2023/07/15 02:32:42;;;;;;;4.62;2.00;;;;;;;18.92;62.39;100334.91;1734620;83;21895;-65
2023/07/15 02:35:13;;;;;;;3.98;2.50;;;;;;;18.90;62.70;100341.26;1734946;83;21040;-63
2023/07/15 02:37:44;;;;;;;4.78;2.22;;;;;;;18.89;62.70;100334.87;1734856;83;21420;-64
2023/07/15 02:40:13;;;;;;;4.95;2.30;;;;;;;18.88;62.74;100335.96;1734797;83;21785;-63
2023/07/15 02:42:42;;;;;;;4.83;2.10;;;;;;;18.87;62.70;100338.99;1734725;82;21032;-65
2023/07/15 02:45:12;;;;;;;4.47;2.42;;;;;;;18.84;62.67;100336.14;1734837;83;21059;-63
2023/07/15 02:47:41;;;;;;;4.00;2.27;;;;;;;18.86;62.77;100343.70;1710244;83;21095;-64
2023/07/15 02:50:11;;;;;;;4.15;2.02;;;;;;;18.87;62.76;100341.77;1734731;83;21032;-64
2023/07/15 02:52:42;;;;;;;4.40;2.45;;;;;;;18.88;62.84;100342.06;1734847;83;21096;-64
2023/07/15 02:55:10;;;;;;;4.97;2.60;;;;;;;18.87;63.04;100345.39;1734796;82;21546;-64
2023/07/15 02:57:41;;;;;;;10.45;2.90;;;;;;;18.89;63.32;100348.75;1710443;83;21079;-63
2023/07/15 03:00:12;;;;;;;9.23;2.12;;;;;;;18.90;63.43;100346.81;1734818;83;21440;-64
2023/07/15 03:02:49;;;;;;;5.17;2.75;;;;;;;18.89;63.15;100346.52;1734770;82;21059;-63
2023/07/15 03:05:19;;;;;;;7.30;2.92;;;;;;;18.90;63.16;100349.59;1735011;82;21015;-67
2023/07/15 03:07:49;;;;;;;6.12;2.70;;;;;;;18.90;63.24;100353.76;1734557;82;21127;-65
2023/07/15 03:10:19;;;;;;;4.28;2.50;;;;;;;18.91;63.24;100354.05;1734672;83;21082;-64
2023/07/15 03:12:48;;;;;;;5.95;2.70;;;;;;;18.92;63.23;100350.17;1734624;83;21028;-63
2023/07/15 03:15:17;;;;;;;5.28;2.60;;;;;;;18.94;63.29;100350.77;1728886;83;21014;-64
2023/07/15 03:17:47;;;;;;;5.75;2.42;;;;;;;18.96;63.17;100358.30;1721142;83;21039;-64
2023/07/15 03:20:21;;;;;;;3.25;2.35;;;;;;;18.97;63.21;100355.27;1721031;83;20999;-64
2023/07/15 03:22:50;;;;;;;3.75;2.35;;;;;;;18.98;63.17;100359.72;1720976;83;21461;-64
2023/07/15 03:25:22;;;;;;;5.08;2.50;;;;;;;18.99;63.26;100357.78;1720895;83;21082;-66
2023/07/15 03:27:51;;;;;;;8.70;2.67;;;;;;;19.01;63.38;100359.76;1720923;82;21038;-64
2023/07/15 03:30:19;;;;;;;7.12;2.40;;;;;;;19.01;63.31;100359.76;1720934;83;21062;-63
2023/07/15 03:32:53;;;;;;;4.72;2.40;;;;;;;19.04;63.38;100366.74;1720808;83;21277;-64
2023/07/15 03:35:21;;;;;;;6.37;2.72;;;;;;;19.05;63.07;100355.92;1721024;82;21070;-65
2023/07/15 03:37:49;;;;;;;5.05;2.60;;;;;;;19.05;63.29;100355.37;1720899;83;21031;-63
2023/07/15 03:40:18;;;;;;;3.33;2.50;;;;;;;19.04;63.12;100355.63;1703241;83;21042;-64
2023/07/15 03:42:48;;;;;;;6.20;2.20;;;;;;;19.04;63.20;100356.47;1720806;83;21023;-64
2023/07/15 03:45:17;;;;;;;5.53;2.58;;;;;;;19.07;63.26;100353.19;1721022;83;21022;-63
2023/07/15 03:47:46;;;;;;;3.80;2.52;;;;;;;19.10;63.40;100361.56;1721092;83;21057;-63
2023/07/15 03:50:15;;;;;;;5.12;2.60;;;;;;;19.11;63.24;100360.46;1720952;82;21082;-63
2023/07/15 03:52:47;;;;;;;4.62;2.83;;;;;;;19.11;63.43;100364.08;1721330;83;21043;-63
2023/07/15 03:55:18;;;;;;;6.03;2.60;;;;;;;19.14;63.47;100363.57;1720806;83;21042;-63
2023/07/15 03:57:47;;;;;;;5.47;3.02;;;;;;;19.18;63.47;100368.91;1720989;83;21214;-63
2023/07/15 04:00:20;;;;;;;5.42;2.58;;;;;;;19.20;63.47;100372.27;1721127;83;21068;-63
2023/07/15 04:02:53;;;;;;;6.55;3.02;;;;;;;19.20;63.38;100376.44;1720943;83;21026;-63
2023/07/15 04:05:21;;;;;;;4.05;2.30;;;;;;;19.21;63.19;100379.51;1721014;83;21022;-65
2023/07/15 04:07:50;;;;;;;4.83;2.60;;;;;;;19.23;63.09;100373.15;1721044;83;21078;-63
2023/07/15 04:10:20;;;;;;;18.10;3.45;;;;;;;19.24;63.01;100374.83;1721084;83;21450;-66
2023/07/15 04:12:49;;;;;;;5.60;3.12;;;;;;;19.27;63.31;100378.48;1720745;83;21047;-64
2023/07/15 04:15:18;;;;;;;5.60;2.67;;;;;;;19.32;63.54;100381.34;1724856;81;21044;-67
2023/07/15 04:17:47;;;;;;;3.92;2.33;;;;;;;19.35;63.14;100379.14;1710074;83;21044;-65
2023/07/15 04:20:17;;;;;;;5.60;2.70;;;;;;;19.38;63.14;100374.47;1734571;83;21028;-63
2023/07/15 04:22:49;;;;;;;4.67;3.10;;;;;;;19.41;62.99;100372.56;1687536;83;21087;-66
2023/07/15 04:25:19;;;;;;;4.78;2.67;;;;;;;19.44;62.47;100378.99;1734873;83;20992;-66
2023/07/15 04:27:47;;;;;;;4.60;2.20;;;;;;;19.45;62.37;100384.30;1734668;82;21037;-64
2023/07/15 04:30:16;;;;;;;6.00;2.70;;;;;;;19.48;62.40;100381.55;1734639;83;21456;-64
2023/07/15 04:32:47;;;;;;;5.33;2.65;;;;;;;19.50;62.18;100387.14;1734516;82;21056;-65
2023/07/15 04:35:18;;;;;;;11.48;2.87;;;;;;;19.54;62.34;100391.70;1734511;82;21056;-66
2023/07/15 04:37:47;;;;;;;5.92;2.87;;;;;;;19.57;62.38;100382.85;1734591;83;21016;-63
2023/07/15 04:40:19;;;;;;;4.78;2.75;;;;;;;19.61;62.38;100395.98;1734599;83;21103;-63
2023/07/15 04:42:48;;;;;;;5.65;2.47;;;;;;;19.65;62.22;100399.08;1710348;83;21012;-64
2023/07/15 04:45:17;;;;;;;10.85;2.62;;;;;;;19.69;62.24;100398.86;1734720;83;21008;-63
2023/07/15 04:47:46;;;;;;;3.08;2.20;;;;;;;19.73;62.28;100399.19;1734555;83;21480;-64
2023/07/15 04:50:16;;;;;;;7.85;2.90;;;;;;;19.79;62.15;100403.16;1734820;83;20988;-63
2023/07/15 04:52:45;;;;;;;5.72;2.58;;;;;;;19.85;61.92;100404.91;1735119;82;21487;-64
2023/07/15 04:55:15;;;;;;;5.90;3.35;;;;;;;19.89;61.71;100404.69;1734777;83;21068;-62
2023/07/15 04:57:44;;;;;;;6.72;3.10;;;;;;;19.94;61.71;100407.52;1734560;83;21510;-64
2023/07/15 05:00:16;;;;;;;4.45;2.80;;;;;;;20.00;61.52;100406.20;1734840;82;21059;-65
2023/07/15 05:02:45;;;;;;;4.95;2.60;;;;;;;20.07;61.50;100406.84;1734659;83;21559;-64
2023/07/15 05:05:16;;;;;;;5.78;3.80;;;;;;;20.17;61.25;100410.61;1734625;83;21471;-64
2023/07/15 05:07:45;;;;;;;6.28;3.70;;;;;;;20.27;61.20;100402.92;1710212;83;21222;-64
2023/07/15 05:10:19;;;;;;;9.78;3.47;;;;;;;20.44;60.70;100407.88;1732860;83;21040;-65
2023/07/15 05:12:47;;;;;;;4.45;2.80;;;;;;;20.64;60.25;100409.17;1734736;83;21101;-65
2023/07/15 05:15:18;;;;;;;6.33;2.83;;;;;;;20.84;59.45;100411.62;1732619;83;21074;-64
2023/07/15 05:17:47;;;;;;;6.10;2.47;;;;;;;21.07;58.69;100409.02;1721070;83;21002;-63
2023/07/15 05:20:18;;;;;;;7.25;2.65;;;;;;;21.34;58.07;100405.34;1702886;83;21158;-63
2023/07/15 05:22:48;;;;;;;7.50;2.37;;;;;;;21.59;57.41;100407.48;1720935;83;21062;-64
2023/07/15 05:25:19;;;;;;;4.20;2.37;;;;;;;21.83;56.61;100408.16;1720937;83;21066;-63
2023/07/15 05:27:49;;;;;;;3.85;2.85;;;;;;;22.08;55.54;100410.80;1720913;83;21114;-64
2023/07/15 05:30:19;;;;;;;4.20;2.60;;;;;;;22.26;54.71;100415.08;1720828;82;21023;-64
2023/07/15 05:32:48;;;;;;;5.65;2.80;;;;;;;22.38;54.28;100405.89;1720776;83;21755;-64
2023/07/15 05:35:18;;;;;;;4.92;2.50;;;;;;;22.59;53.65;100415.15;1720697;83;21706;-64
2023/07/15 05:37:47;;;;;;;5.30;2.62;;;;;;;22.81;52.92;100407.41;1720990;82;21110;-64
2023/07/15 05:40:17;;;;;;;8.13;2.42;;;;;;;23.01;52.09;100412.17;1721081;83;21030;-64
2023/07/15 05:42:46;;;;;;;5.87;2.65;;;;;;;23.22;51.70;100412.99;1720909;83;21024;-64
2023/07/15 05:45:16;;;;;;;10.28;3.08;;;;;;;23.44;51.36;100409.35;1720953;83;20983;-65
2023/07/15 05:47:46;;;;;;;3.67;2.80;;;;;;;23.66;50.84;100412.69;1720846;83;21509;-65
2023/07/15 05:50:15;;;;;;;5.67;2.55;;;;;;;23.85;50.29;100410.10;1721028;83;20987;-65
2023/07/15 05:52:44;;;;;;;5.83;2.80;;;;;;;24.00;49.50;100410.60;1721058;83;21046;-65
2023/07/15 05:55:13;;;;;;;5.37;2.55;;;;;;;24.13;49.10;100413.37;1721134;83;21039;-65
2023/07/15 05:57:43;;;;;;;6.35;2.67;;;;;;;24.24;49.07;100412.20;1720855;83;21034;-64
2023/07/15 06:00:13;;;;;;;5.90;2.35;;;;;;;24.47;48.12;100412.94;1722926;83;20998;-65
2023/07/15 06:02:43;;;;;;;7.75;2.80;;;;;;;24.62;47.46;100412.00;1720860;83;21029;-69
2023/07/15 06:05:12;;;;;;;4.10;2.65;;;;;;;24.70;47.35;100411.38;1703085;83;21046;-64
2023/07/15 06:07:42;;;;;;;12.18;4.17;;;;;;;24.85;47.09;100412.69;1721029;83;21070;-65
2023/07/15 06:10:11;;;;;;;5.72;2.98;;;;;;;24.98;46.79;100412.63;1720847;82;21039;-64
2023/07/15 06:12:41;;;;;;;4.83;2.40;;;;;;;25.16;46.73;100417.52;1721046;83;21067;-67
2023/07/15 06:15:11;;;;;;;3.58;2.40;;;;;;;25.33;45.95;100416.23;1720977;83;21478;-66
2023/07/15 06:17:40;;;;;;;5.50;2.83;;;;;;;25.48;44.51;100411.91;1720784;82;21129;-64
2023/07/15 06:20:11;;;;;;;6.05;2.58;;;;;;;25.49;44.83;100412.17;1720652;83;21038;-64
2023/07/15 06:22:41;;;;;;;10.08;2.70;;;;;;;25.60;44.68;100415.14;1720948;83;21054;-64
2023/07/15 06:25:12;;;;;;;6.78;2.83;;;;;;;25.71;44.26;100417.30;1703144;83;21007;-64
2023/07/15 06:27:41;;;;;;;5.78;2.52;;;;;;;25.91;43.86;100410.88;1720744;83;21568;-66
2023/07/15 06:30:11;;;;;;;3.30;2.30;;;;;;;26.07;43.77;100414.92;1720897;83;21934;-65
2023/07/15 06:32:40;;;;;;;4.30;2.45;;;;;;;26.18;43.61;100414.49;1702828;83;21027;-64
2023/07/15 06:35:09;;;;;;;5.08;2.33;;;;;;;26.33;42.77;100421.07;1720810;83;21042;-65
2023/07/15 06:37:40;;;;;;;7.50;2.50;;;;;;;26.43;42.83;100416.71;1720911;83;21109;-64
2023/07/15 06:40:09;;;;;;;5.05;2.52;;;;;;;26.60;42.79;100410.56;1721010;83;21078;-65
2023/07/15 06:42:39;;;;;;;4.90;2.42;;;;;;;26.78;42.21;100414.80;1720987;82;21023;-66
2023/07/15 06:45:09;;;;;;;7.65;2.80;;;;;;;26.94;41.62;100422.98;1721082;82;21003;-65
2023/07/15 06:47:38;;;;;;;5.90;2.35;;;;;;;27.03;41.64;100425.39;1720613;83;21019;-64
2023/07/15 06:50:09;;;;;;;4.83;2.40;;;;;;;27.17;40.61;100419.25;1721065;83;21046;-64
2023/07/15 06:52:38;;;;;;;20.85;3.20;;;;;;;27.31;39.71;100416.47;1720931;82;20999;-64
2023/07/15 06:55:09;;;;;;;5.70;2.27;;;;;;;27.40;40.23;100422.52;1720914;82;21059;-65
2023/07/15 06:57:39;;;;;;;6.58;2.25;;;;;;;27.51;40.05;100415.30;1720866;82;21105;-66
2023/07/15 07:00:10;;;;;;;3.33;1.92;;;;;;;27.63;39.94;100419.87;1720721;83;21423;-65
2023/07/15 07:02:41;;;;;;;4.08;2.10;;;;;;;27.81;38.92;100423.75;1720916;83;21018;-68
2023/07/15 07:05:11;;;;;;;2.87;1.90;;;;;;;27.94;38.71;100416.70;1721028;83;21066;-65
2023/07/15 07:07:40;;;;;;;4.67;2.37;;;;;;;28.04;38.45;100415.12;1720618;83;21552;-65
2023/07/15 07:10:11;;;;;;;11.30;2.75;;;;;;;28.10;38.17;100416.68;1720803;83;21031;-66
2023/07/15 07:12:41;;;;;;;5.58;2.15;;;;;;;28.22;38.16;100420.37;1720688;83;21014;-65
2023/07/15 07:15:11;;;;;;;8.15;2.50;;;;;;;28.29;37.51;100422.22;1720851;83;21081;-66
2023/07/15 07:17:41;;;;;;;4.40;2.20;;;;;;;28.34;37.56;100424.92;1732457;83;21537;-67
2023/07/15 07:20:12;;;;;;;3.35;2.27;;;;;;;28.42;37.56;100426.16;1734786;82;21060;-65
2023/07/15 07:22:41;;;;;;;4.12;2.20;;;;;;;28.54;37.54;100433.50;1734648;83;21099;-66
2023/07/15 07:25:11;;;;;;;5.15;2.47;;;;;;;28.69;37.19;100420.48;1734834;83;21024;-65
2023/07/15 07:27:40;;;;;;;6.30;2.08;;;;;;;28.87;36.21;100439.83;1734648;83;21202;-66
2023/07/15 07:30:10;;;;;;;3.60;1.95;;;;;;;28.89;35.93;100440.92;1734930;83;21044;-64
2023/07/15 07:32:38;;;;;;;5.55;2.10;;;;;;;28.87;35.58;100432.78;1734659;83;21099;-64
2023/07/15 07:35:09;;;;;;;4.80;2.33;;;;;;;28.88;36.27;100435.85;1710442;83;21224;-66
2023/07/15 07:37:39;;;;;;;6.53;2.58;;;;;;;29.06;36.00;100436.83;1734688;82;21051;-63
2023/07/15 07:40:10;;;;;;;9.15;1.90;;;;;;;29.12;36.54;100442.59;1734581;83;21480;-65
2023/07/15 07:42:39;;;;;;;3.65;1.80;;;;;;;29.26;35.71;100439.70;1709830;83;21487;-72
2023/07/15 07:45:14;;;;;;;3.70;1.95;;;;;;;29.42;35.82;100430.29;1734554;83;21541;-66
2023/07/15 07:47:43;;;;;;;4.57;2.20;;;;;;;29.42;34.34;100437.34;1735121;83;21024;-64
2023/07/15 07:50:12;;;;;;;5.45;2.20;;;;;;;29.39;34.64;100444.47;1719135;83;21048;-66
2023/07/15 07:52:41;;;;;;;6.33;2.30;;;;;;;29.44;34.91;100442.12;1731083;83;21031;-68
2023/07/15 07:55:10;;;;;;;4.08;2.25;;;;;;;29.49;34.84;100443.40;1705456;84;21028;-64
2023/07/15 07:57:38;;;;;;;7.37;2.08;;;;;;;29.56;34.87;100444.61;1715645;83;21227;-67
2023/07/15 08:00:10;;;;;;;2.47;2.05;;;;;;;29.61;34.66;100449.28;1734572;83;21123;-75
2023/07/15 08:02:40;;;;;;;4.42;1.77;;;;;;;29.67;34.36;100445.16;1710320;83;21060;-69
2023/07/15 08:05:09;;;;;;;4.78;1.90;;;;;;;29.69;32.94;100443.42;1734788;83;21003;-76
2023/07/15 08:07:38;;;;;;;4.08;1.90;;;;;;;29.66;33.71;100442.91;1706431;82;21048;-72
2023/07/15 08:10:10;;;;;;;4.53;2.10;;;;;;;29.76;33.87;100447.45;1728248;83;21040;-74
2023/07/15 08:12:38;;;;;;;7.83;3.00;;;;;;;29.74;34.24;100449.77;1734572;83;21008;-72
2023/07/15 08:15:10;;;;;;;4.90;2.20;;;;;;;29.88;33.83;100446.26;1734537;82;21472;-73
2023/07/15 08:17:40;;;;;;;5.50;1.80;;;;;;;30.04;33.55;100451.53;1734530;83;21067;-73
2023/07/15 08:20:09;;;;;;;6.00;2.50;;;;;;;30.10;33.92;100444.58;1734511;82;20996;-74
2023/07/15 08:22:37;;;;;;;3.65;2.22;;;;;;;30.22;33.34;100437.13;1707460;83;21075;-72
2023/07/15 08:25:09;;;;;;;5.97;2.37;;;;;;;30.35;33.54;100435.33;1726166;83;21425;-71
2023/07/15 08:27:38;;;;;;;4.97;2.10;;;;;;;30.49;32.51;100439.44;1725821;83;21507;-72
2023/07/15 08:30:10;;;;;;;4.65;2.60;;;;;;;30.40;32.92;100435.76;1725854;83;21032;-73
2023/07/15 08:32:40;;;;;;;5.87;2.37;;;;;;;30.31;32.88;100440.56;1725775;83;21044;-70
2023/07/15 08:35:10;;;;;;;5.80;2.00;;;;;;;30.14;33.29;100440.77;1725619;83;21371;-71
2023/07/15 08:37:40;;;;;;;6.33;1.85;;;;;;;30.10;32.75;100445.98;1725770;83;21115;-70
2023/07/15 08:40:11;;;;;;;4.97;1.90;;;;;;;30.01;32.64;100439.44;1725842;83;21013;-73
2023/07/15 08:42:40;;;;;;;5.03;1.52;;;;;;;30.00;32.65;100440.59;1725704;83;21493;-72
2023/07/15 08:45:10;;;;;;;7.83;1.70;;;;;;;29.94;31.61;100442.73;1725626;83;21088;-73
2023/07/15 08:47:43;;;;;;;4.20;1.50;;;;;;;29.87;31.60;100440.35;1725546;83;21488;-73
2023/07/15 08:50:20;;;;;;;5.30;1.62;;;;;;;29.95;31.39;100435.34;1725878;83;21108;-74
2023/07/15 08:52:45;;;;;;;5.00;1.65;;;;;;;30.02;31.46;100429.83;1725497;83;21064;-72
2023/07/15 08:55:14;;;;;;;6.05;1.70;;;;;;;30.02;31.40;100429.83;1725739;83;21521;-73
2023/07/15 08:57:44;;;;;;;4.80;1.70;;;;;;;30.02;31.66;100432.66;1725722;83;21074;-72
2023/07/15 09:00:15;;;;;;;3.92;1.60;;;;;;;29.98;31.55;100421.14;1725768;83;21498;-73
2023/07/15 09:02:44;;;;;;;6.22;1.92;;;;;;;29.94;31.33;100422.38;1725949;83;21106;-72
2023/07/15 09:05:12;;;;;;;2.75;1.60;;;;;;;30.03;31.40;100420.20;1725686;83;21646;-73
2023/07/15 09:07:54;;;;;;;3.87;1.70;;;;;;;30.11;31.50;100413.73;1725647;83;21130;-73
2023/07/15 09:10:23;;;;;;;3.30;1.92;;;;;;;30.24;31.21;100415.59;1699390;83;21046;-69
2023/07/15 09:12:53;;;;;;;5.95;2.00;;;;;;;30.41;30.32;100424.12;1725811;83;21074;-71
2023/07/15 09:15:23;;;;;;;4.37;1.60;;;;;;;30.37;30.90;100425.94;1725661;83;21470;-74
2023/07/15 09:18:03;;;;;;;3.17;1.65;;;;;;;30.22;30.63;100420.17;1725646;83;21529;-73
2023/07/15 09:20:30;;;;;;;4.15;2.10;;;;;;;30.09;30.77;100423.95;1725782;83;21118;-72
2023/07/15 09:23:01;;;;;;;3.92;2.00;;;;;;;30.05;30.49;100428.60;1725548;83;21086;-66
2023/07/15 09:25:30;;;;;;;3.30;1.80;;;;;;;30.00;30.01;100427.88;1725886;83;21079;-67
2023/07/15 09:27:59;;;;;;;6.28;1.90;;;;;;;29.78;30.41;100426.77;1725861;83;20991;-72
2023/07/15 09:30:28;;;;;;;3.47;1.77;;;;;;;29.55;31.03;100420.93;1725760;83;21489;-70
2023/07/15 09:32:57;;;;;;;4.53;1.70;;;;;;;29.51;31.01;100424.14;1725711;83;21062;-72
2023/07/15 09:35:37;;;;;;;3.95;1.98;;;;;;;29.41;31.32;100425.22;1725607;83;21046;-71
2023/07/15 09:38:13;;;;;;;3.27;1.90;;;;;;;29.38;31.50;100422.21;1725734;83;21019;-72
2023/07/15 09:40:42;;;;;;;3.35;1.92;;;;;;;29.35;31.29;100419.45;1725825;83;21078;-70
2023/07/15 09:43:11;;;;;;;3.87;1.82;;;;;;;29.30;31.76;100428.89;1725702;83;21082;-70
2023/07/15 09:45:40;;;;;;;3.58;1.70;;;;;;;29.23;31.74;100423.41;1725916;83;21685;-72
2023/07/15 09:48:14;;;;;;;4.85;2.00;;;;;;;29.07;31.58;100425.80;1725735;83;21080;-71
2023/07/15 09:50:42;;;;;;;2.92;1.77;;;;;;;28.94;32.09;100425.28;1725818;83;21055;-71
2023/07/15 09:53:11;;;;;;;2.33;1.80;;;;;;;28.91;32.52;100425.92;1725708;83;21478;-71
2023/07/15 09:55:41;;;;;;;3.55;1.75;;;;;;;28.94;32.94;100422.45;1725827;83;21114;-72
2023/07/15 09:58:24;;;;;;;3.47;1.95;;;;;;;28.98;32.42;100429.12;1746474;82;21019;-72
2023/07/15 10:00:57;;;;;;;3.12;1.80;;;;;;;29.02;32.49;100425.92;1710172;83;21436;-71
2023/07/15 10:03:34;;;;;;;3.08;1.70;;;;;;;29.00;32.87;100426.24;1734442;83;21036;-71
2023/07/15 10:06:04;;;;;;;3.30;1.67;;;;;;;28.88;31.92;100422.33;1734114;83;21075;-72
2023/07/15 10:08:32;;;;;;;2.25;1.65;;;;;;;28.88;31.92;100422.33;1734364;82;21040;-70
2023/07/15 10:11:01;;;;;;;4.67;2.30;;;;;;;28.75;32.04;100421.20;1734413;83;21012;-71
2023/07/15 10:13:30;;;;;;;3.05;1.82;;;;;;;28.58;31.15;100423.83;1733635;82;21028;-71
2023/07/15 10:16:01;;;;;;;3.98;2.08;;;;;;;28.46;31.78;100415.92;1681727;84;21064;-72
2023/07/15 10:18:33;;;;;;;3.55;1.90;;;;;;;28.37;32.30;100416.41;1705139;84;21051;-70
2023/07/15 10:21:05;;;;;;;4.10;1.77;;;;;;;28.29;33.10;100417.16;1705154;84;21293;-75
2023/07/15 10:23:34;;;;;;;5.50;2.10;;;;;;;28.23;32.98;100421.20;1705431;84;21028;-72
2023/07/15 10:26:05;;;;;;;2.30;1.70;;;;;;;28.16;32.42;100419.39;1705300;84;21056;-71
2023/07/15 10:28:40;;;;;;;5.80;2.72;;;;;;;27.90;32.44;100419.89;1705253;83;21102;-72
2023/07/15 10:31:15;;;;;;;2.60;1.70;;;;;;;27.90;32.44;100419.89;1705133;84;21000;-71
2023/07/15 10:33:59;;;;;;;2.12;1.60;;;;;;;27.78;32.41;100413.94;1705318;83;21039;-72
2023/07/15 10:36:38;;;;;;;5.15;1.80;;;;;;;27.76;32.93;100419.88;1705344;84;21449;-72
2023/07/15 10:39:17;;;;;;;3.80;1.90;;;;;;;27.82;33.28;100422.60;1681521;84;21059;-70
2023/07/15 10:41:49;;;;;;;8.63;2.20;;;;;;;27.86;33.15;100416.60;1705143;84;21040;-65
2023/07/15 10:44:23;;;;;;;3.58;2.12;;;;;;;27.81;32.99;100404.88;1681443;84;21099;-69
2023/07/15 10:47:03;;;;;;;2.67;1.87;;;;;;;27.69;33.74;100407.37;1705377;83;21085;-67
2023/07/15 10:49:32;;;;;;;3.58;1.70;;;;;;;27.71;33.66;100408.73;1705051;84;21056;-69
2023/07/15 10:52:05;;;;;;;4.62;2.02;;;;;;;27.74;32.68;100412.90;1705404;84;21051;-69
2023/07/15 10:54:39;;;;;;;2.40;1.60;;;;;;;27.68;32.00;100412.73;1705246;83;21087;-68
2023/07/15 10:57:10;;;;;;;2.95;1.98;;;;;;;27.62;31.53;100405.53;1712782;83;21536;-66
2023/07/15 10:59:42;;;;;;;3.15;1.75;;;;;;;27.53;31.42;100403.15;1734491;83;21103;-68
2023/07/15 11:02:11;;;;;;;9.20;2.20;;;;;;;27.45;32.07;100399.91;1734524;82;21553;-69
2023/07/15 11:04:40;;;;;;;6.58;1.92;;;;;;;27.44;32.21;100399.64;1734747;82;21083;-69
2023/07/15 11:07:11;;;;;;;7.58;2.30;;;;;;;27.46;32.31;100395.95;1648631;87;21133;-70
2023/07/15 11:09:42;;;;;;;3.90;1.62;;;;;;;27.52;32.71;100389.65;1648839;87;21083;-69
2023/07/15 11:12:13;;;;;;;6.97;2.20;;;;;;;27.61;32.75;100391.20;1649088;87;21087;-69
2023/07/15 11:14:43;;;;;;;5.15;3.30;;;;;;;27.69;32.79;100394.70;1627166;87;21067;-70
2023/07/15 11:17:14;;;;;;;2.35;1.50;;;;;;;27.76;32.30;100386.09;1626373;86;21217;-69
2023/07/15 11:19:45;;;;;;;4.95;1.67;;;;;;;27.81;31.65;100388.55;1646355;86;21071;-68
2023/07/15 11:22:14;;;;;;;4.08;1.70;;;;;;;27.73;31.12;100388.70;1641671;87;21070;-68
2023/07/15 11:24:46;;;;;;;4.30;1.70;;;;;;;27.73;31.12;100388.70;1647466;82;21257;-68
2023/07/15 11:27:17;;;;;;;3.25;1.50;;;;;;;27.72;31.22;100388.44;1709319;82;21021;-70
2023/07/15 11:29:59;;;;;;;3.40;1.57;;;;;;;27.74;30.90;100386.98;1729342;82;21010;-67
2023/07/15 11:32:29;;;;;;;6.28;2.17;;;;;;;27.77;31.33;100390.58;1702954;83;21093;-69
2023/07/15 11:35:12;;;;;;;2.37;1.50;;;;;;;27.84;31.71;100387.92;1729451;83;21920;-69
2023/07/15 11:37:45;;;;;;;3.35;1.30;;;;;;;27.93;30.81;100386.04;1705433;83;21117;-69
2023/07/15 11:40:18;;;;;;;3.65;1.60;;;;;;;27.97;30.13;100394.16;1729473;82;21061;-69